Airfield :
LOGIN :

Register | Disclaimer

   EN    FR    IT 

 










Legend :    VFR   Marginal VFR   IFR   Intensive IFR   Very Intensive IFR
Visi :
Ceiling :
>= 8 km
>= 3000ft
5 to 8 km
1000 to 3000 ft
1500m to 5 km
500 to 1000 ft
800 to 1500m
200 to 500 ft
< 800m
< 200 ft
Symbols :   Thunderstorms  Fog  Heavy snow  Heavy precipitations  Wind > 20 kt
SIGMETs :     Misc.  Thunderstorms  Icing  Turbulence  Mountain Waves  Volcanic Ashes






- Airport Elevation : 17 ft
- IATA code : GRQ


EHGG - Groningen Eelde

CURRENT METAR :
  • 110155Z AUTO 20016KT 8000 -RADZ FEW009 BKN015 OVC018 06/05 Q1006 RERA REDZ

EXPIRED METARs :
  • 110125Z AUTO 20016G26KT 170V230 6000 +DZ OVC016 06/03 Q1006
  • 110055Z AUTO 19017KT 150V220 9999 OVC021 06/03 Q1006
  • 110025Z AUTO 19019KT 160V220 9999 OVC020 06/02 Q1006
  • 102355Z AUTO 19019G30KT 160V230 9999 OVC022 06/02 Q1007
  • 102325Z AUTO 19018KT 160V220 9999 FEW018 OVC021 06/01 Q1007

TAF TAF EHGG
Valid from the 11 at 00:00 until the 12 at 06:00 UTC


102316Z 1100/1206 19022G33KT 9999 BKN020
BECMG 1100/1103 22013G23KT 6000 RA SCT008 BKN012
BECMG 1105/1108 21008KT 9999 NSW BKN020
PROB40 1105/1111 4000 DZ BR BKN007
BECMG 1117/1120 4000 BR
PROB40 1200/1206 6000 BKN005



MET'MAP, your aeronautical weather chart ! - Copyright ORBIFLY December 2007 - Disclaimer

ORBIFLY MET'MAP TEAM :

Programming & Development : Alexandra Zaïnal
Concept & original design : Baudouin d'Aumeries
Assistance for programming : Marc-Olivier Méhu
Technical & hardware support : Manuel Goepfert

Contact : metmap@orbifly.com




SOURCES & CREDITS :

   NOAA